Hlavní strana
METAR-TAF:

METAR-TAF

Letiště :

Borlänge, Švédsko

zeměpisná šířka: 60-26N, zeměpisná délka: 015-31E, výška: 145 m

Aktuální stav počasí

Zpráva byla vytvořena před 33 minutami, v 15:50 UTC
Severovýchodní vítr 6 kt, proměnlivý mezi severním a východním
Teplota 3°C
Vlhkost vzduchu 87%
Tlak 1042 hPa
Viditelnost 10 km a více

METAR: ESSD 181550Z AUTO 04006KT 010V080 9999 BKN019/// OVC024/// 03/01 Q1042

Čas: 17:23 (16:23 UTC)


TAF: chybějící

Stav a předpovědi počasí z více než 4 000 letišť (zprávy METAR a TAF).

Červené a žluté tečky na mapě představují dostupné meteorologické stanice.

Když kurzor umístíte na tečku, zobrazí se název stanice.

Pak kliknutím zobrazíte stav a předpověď počasí.

Chcete-li změnit mapu, kliknutím na zelené tlačítko se znaménkem +mapu přiblížíte, kliknutím na zelené tlačítko se znaménkem – mapu oddálíte a kliknutím na zelené šipky přejdete na sousední mapy.


METAR-TAF: